Georgetown, Florida
Current Conditions -  °F | °C
As of 2:50 PM on Thursday 23 Oct 2014 (Local Time) from KXFL Reporting Station
Clear Clear  
Wind Chill: 75°   Ceiling: Unl
Heat Index: 75°   Visibility: 7mi
Dew Point: 55°   Wind: 12mph
Humidity: 50%   Direction: 20°NNE
Pressure: 29.99"   Gusts: 17mph
Location:  29.39°N, 81.64°W
Report Text: KXFL 231850Z 02010G15KT 360V090 7SM CLR 24/13 A2999
Loading
Personal Weather Stations






























Interactive Weather Map
Tropical Storm Tracking
New forecast layout! Learn more

10-Day Weather Forecast

Advertisements
Track Severe Weather on mobile